createdAt,value
2022-09-04T00:02:24.349Z,18.14
2022-09-04T00:05:04.369Z,18.08
2022-09-04T00:07:39.746Z,18.07
2022-09-04T00:10:15.289Z,18.04
2022-09-04T00:12:50.390Z,17.99
2022-09-04T00:15:22.255Z,17.97
2022-09-04T00:17:59.515Z,17.94
2022-09-04T00:20:46.992Z,17.94
2022-09-04T00:23:20.984Z,17.86
2022-09-04T00:25:58.935Z,17.89
2022-09-04T00:28:35.491Z,17.81
2022-09-04T00:31:16.354Z,17.84
2022-09-04T00:33:57.487Z,17.78
2022-09-04T00:36:29.398Z,17.80
2022-09-04T00:39:01.634Z,17.80
2022-09-04T00:41:31.750Z,17.75
2022-09-04T00:44:25.472Z,17.75
2022-09-04T00:47:10.694Z,17.76
2022-09-04T00:50:22.658Z,17.73
2022-09-04T00:53:10.705Z,17.70
2022-09-04T00:56:05.409Z,17.67
2022-09-04T00:58:56.793Z,17.66
2022-09-04T01:01:27.989Z,17.61
2022-09-04T01:04:24.610Z,17.61
2022-09-04T01:07:09.213Z,17.47
2022-09-04T01:09:53.926Z,17.48
2022-09-04T01:12:33.767Z,17.45
2022-09-04T01:15:14.350Z,17.39
2022-09-04T01:17:52.070Z,17.39
2022-09-04T01:20:28.983Z,17.35
2022-09-04T01:23:23.150Z,17.38
2022-09-04T01:26:03.562Z,17.35
2022-09-04T01:28:43.047Z,17.31
2022-09-04T01:31:23.881Z,17.29
2022-09-04T01:34:04.009Z,17.31
2022-09-04T01:36:39.298Z,17.31
2022-09-04T01:39:07.379Z,17.35
2022-09-04T01:41:46.095Z,17.31
2022-09-04T01:44:16.939Z,17.24
2022-09-04T01:47:01.428Z,17.25
2022-09-04T01:49:35.681Z,17.19
2022-09-04T01:52:36.498Z,17.15
2022-09-04T01:55:13.421Z,17.11
2022-09-04T01:57:55.541Z,17.09
2022-09-04T02:00:25.040Z,16.98
2022-09-04T02:03:02.291Z,17.04
2022-09-04T02:05:45.648Z,17.06
2022-09-04T02:08:39.255Z,17.01
2022-09-04T02:11:15.815Z,16.96
2022-09-04T02:14:04.693Z,17.01
2022-09-04T02:16:45.482Z,17.00
2022-09-04T02:19:28.279Z,17.03
2022-09-04T02:22:02.954Z,16.98
2022-09-04T02:24:37.612Z,16.97
2022-09-04T02:27:11.853Z,17.01
2022-09-04T02:29:47.955Z,16.96
2022-09-04T02:32:25.735Z,16.91
2022-09-04T02:35:00.206Z,16.98
2022-09-04T02:37:39.677Z,17.00
2022-09-04T02:40:16.328Z,16.95
2022-09-04T02:42:58.491Z,16.94
2022-09-04T02:45:35.727Z,16.91
2022-09-04T02:48:14.238Z,16.92
2022-09-04T02:50:57.853Z,16.98
2022-09-04T02:53:33.690Z,16.96
2022-09-04T02:56:17.544Z,16.96
2022-09-04T02:59:03.653Z,16.91
2022-09-04T03:01:43.601Z,16.93
2022-09-04T03:04:25.965Z,16.96
2022-09-04T03:06:58.172Z,16.88
2022-09-04T03:09:30.196Z,16.87
2022-09-04T03:12:04.948Z,16.97
2022-09-04T03:14:40.188Z,16.93
2022-09-04T03:17:17.427Z,16.87
2022-09-04T03:19:52.391Z,16.84
2022-09-04T03:22:28.398Z,16.88
2022-09-04T03:25:08.706Z,16.86
2022-09-04T03:27:36.998Z,16.88
2022-09-04T03:30:08.998Z,16.87
2022-09-04T03:32:46.453Z,16.89
2022-09-04T03:35:25.826Z,16.90
2022-09-04T03:38:09.987Z,16.87
2022-09-04T03:40:43.061Z,16.84
2022-09-04T03:43:31.307Z,16.84
2022-09-04T03:46:12.187Z,16.75
2022-09-04T03:49:01.391Z,16.78
2022-09-04T03:51:40.386Z,16.75
2022-09-04T03:54:18.166Z,16.72
2022-09-04T03:56:54.591Z,16.74
2022-09-04T03:59:41.203Z,16.69
2022-09-04T04:02:24.250Z,16.67
2022-09-04T04:05:21.509Z,16.70
2022-09-04T04:08:04.774Z,16.66
2022-09-04T04:10:48.584Z,16.63
2022-09-04T04:13:33.387Z,16.49
2022-09-04T04:16:24.703Z,16.59
2022-09-04T04:19:12.174Z,16.59
2022-09-04T04:21:56.980Z,16.52
2022-09-04T04:24:44.293Z,16.55
2022-09-04T04:27:25.719Z,16.54
2022-09-04T04:30:09.425Z,16.60
2022-09-04T04:33:01.427Z,16.57
2022-09-04T04:35:36.810Z,16.54
2022-09-04T04:38:19.279Z,16.55
2022-09-04T04:41:05.637Z,16.54
2022-09-04T04:43:45.849Z,16.60
2022-09-04T04:46:22.527Z,16.67
2022-09-04T04:49:07.849Z,16.72
2022-09-04T04:52:05.839Z,16.65
2022-09-04T04:55:10.841Z,16.61
2022-09-04T04:58:02.483Z,16.57
2022-09-04T05:00:37.113Z,16.59
2022-09-04T05:03:15.415Z,16.58
2022-09-04T05:05:58.260Z,16.67
2022-09-04T05:08:35.974Z,16.69
2022-09-04T05:11:11.594Z,16.61
2022-09-04T05:13:53.470Z,16.65
2022-09-04T05:16:30.050Z,16.66
2022-09-04T05:19:03.051Z,16.72
2022-09-04T05:21:38.555Z,16.76
2022-09-04T05:24:11.997Z,16.73
2022-09-04T05:26:49.825Z,16.69
2022-09-04T05:29:27.218Z,16.69
2022-09-04T05:32:02.395Z,16.64
2022-09-04T05:34:36.783Z,16.57
2022-09-04T05:37:15.291Z,16.51
2022-09-04T05:40:00.840Z,16.54
2022-09-04T05:42:58.927Z,16.52
2022-09-04T05:45:38.440Z,16.72
2022-09-04T05:48:17.523Z,16.70
2022-09-04T05:51:04.245Z,16.74
2022-09-04T05:54:00.842Z,16.84
2022-09-04T05:57:13.170Z,16.84
2022-09-04T06:00:09.412Z,16.92
2022-09-04T06:03:09.825Z,17.05
2022-09-04T06:05:52.033Z,17.15
2022-09-04T06:08:33.475Z,17.17
2022-09-04T06:11:22.653Z,17.24
2022-09-04T06:14:25.636Z,17.28
2022-09-04T06:17:12.688Z,17.31
2022-09-04T06:20:02.090Z,17.35
2022-09-04T06:22:47.861Z,17.40
2022-09-04T06:25:31.910Z,17.35
2022-09-04T06:28:14.150Z,17.50
2022-09-04T06:30:49.811Z,17.48
2022-09-04T06:33:59.037Z,17.63
2022-09-04T06:37:02.102Z,17.59
2022-09-04T06:39:45.988Z,17.72
2022-09-04T06:42:28.017Z,17.72
2022-09-04T06:45:11.134Z,17.77
2022-09-04T06:47:54.742Z,17.86
2022-09-04T06:50:35.142Z,17.98
2022-09-04T06:53:19.285Z,17.99
2022-09-04T06:55:59.254Z,18.04
2022-09-04T06:58:51.168Z,18.07
2022-09-04T07:01:27.437Z,18.18
2022-09-04T07:04:07.519Z,18.23
2022-09-04T07:06:51.377Z,18.42
2022-09-04T07:09:24.208Z,18.38
2022-09-04T07:12:16.280Z,18.50
2022-09-04T07:15:14.135Z,18.49
2022-09-04T07:17:49.314Z,18.55
2022-09-04T07:20:33.138Z,18.57
2022-09-04T07:23:37.108Z,18.69
2022-09-04T07:26:20.466Z,18.75
2022-09-04T07:29:23.753Z,18.90
2022-09-04T07:32:02.467Z,18.92
2022-09-04T07:34:41.268Z,18.93
2022-09-04T07:37:27.894Z,18.95
2022-09-04T07:40:09.576Z,19.09
2022-09-04T07:42:45.800Z,19.18
2022-09-04T07:45:23.486Z,19.18
2022-09-04T07:48:07.249Z,19.15
2022-09-04T07:50:40.276Z,19.18
2022-09-04T07:53:21.322Z,19.36
2022-09-04T07:55:56.358Z,19.40
2022-09-04T07:58:44.299Z,19.51
2022-09-04T08:01:40.322Z,19.46
2022-09-04T08:04:33.951Z,19.50
2022-09-04T08:07:08.287Z,19.50
2022-09-04T08:09:53.909Z,19.60
2022-09-04T08:12:50.896Z,19.71
2022-09-04T08:15:22.251Z,20.12
2022-09-04T08:18:05.550Z,20.09
2022-09-04T08:20:45.471Z,20.13
2022-09-04T08:24:01.568Z,20.13
2022-09-04T08:26:46.040Z,20.44
2022-09-04T08:29:37.469Z,20.30
2022-09-04T08:32:22.497Z,20.27
2022-09-04T08:35:22.566Z,20.24
2022-09-04T08:38:08.648Z,20.35
2022-09-04T08:41:02.731Z,20.28
2022-09-04T08:43:41.115Z,20.55
2022-09-04T08:46:49.464Z,20.42
2022-09-04T08:49:55.246Z,20.66
2022-09-04T08:53:03.869Z,20.54
2022-09-04T08:55:46.026Z,20.50
2022-09-04T08:58:55.736Z,20.85
2022-09-04T09:02:03.378Z,20.74
2022-09-04T09:05:09.014Z,20.97
2022-09-04T09:08:18.726Z,20.97
2022-09-04T09:11:13.165Z,21.10
2022-09-04T09:14:11.623Z,21.12
2022-09-04T09:16:45.088Z,21.24
2022-09-04T09:19:22.911Z,21.17
2022-09-04T09:22:12.449Z,21.51
2022-09-04T09:25:21.214Z,21.57
2022-09-04T09:28:26.684Z,21.43
2022-09-04T09:31:38.290Z,21.55
2022-09-04T09:34:36.450Z,21.80
2022-09-04T09:37:35.285Z,21.80
2022-09-04T09:40:26.824Z,21.68
2022-09-04T09:43:35.345Z,22.07
2022-09-04T09:46:33.426Z,22.19
2022-09-04T09:49:21.272Z,22.14
2022-09-04T09:52:15.386Z,21.98
2022-09-04T09:55:28.078Z,22.34
2022-09-04T09:58:28.465Z,22.08
2022-09-04T10:01:08.605Z,22.14
2022-09-04T10:04:12.208Z,22.38
2022-09-04T10:07:10.854Z,22.59
2022-09-04T10:10:18.786Z,22.78
2022-09-04T10:13:26.169Z,22.52
2022-09-04T10:16:21.025Z,22.71
2022-09-04T10:19:39.454Z,22.82
2022-09-04T10:22:41.868Z,22.67
2022-09-04T10:25:31.313Z,22.70
2022-09-04T10:28:41.021Z,22.92
2022-09-04T10:31:45.753Z,22.92
2022-09-04T10:34:38.445Z,22.94
2022-09-04T10:37:22.928Z,23.45
2022-09-04T10:40:24.288Z,23.36
2022-09-04T10:43:11.742Z,23.39
2022-09-04T10:45:47.209Z,23.36
2022-09-04T10:48:49.193Z,23.91
2022-09-04T10:52:09.895Z,23.72
2022-09-04T10:55:19.841Z,23.66
2022-09-04T10:58:02.097Z,23.76
2022-09-04T11:00:36.778Z,23.71
2022-09-04T11:03:33.387Z,23.83
2022-09-04T11:06:43.761Z,24.41
2022-09-04T11:09:23.674Z,24.10
2022-09-04T11:12:36.294Z,24.52
2022-09-04T11:15:27.719Z,24.16
2022-09-04T11:18:34.755Z,24.40
2022-09-04T11:21:58.923Z,24.21
2022-09-04T11:25:19.096Z,24.15
2022-09-04T11:28:01.489Z,24.17
2022-09-04T11:30:36.685Z,23.95
2022-09-04T11:33:50.402Z,24.24
2022-09-04T11:36:52.977Z,24.16
2022-09-04T11:39:43.717Z,24.15
2022-09-04T11:42:49.951Z,24.36
2022-09-04T11:45:49.625Z,24.77
2022-09-04T11:48:57.479Z,24.92
2022-09-04T11:52:04.080Z,24.76
2022-09-04T11:55:14.075Z,24.98
2022-09-04T11:58:00.307Z,25.49
2022-09-04T12:00:48.571Z,25.24
2022-09-04T12:03:53.018Z,25.21
2022-09-04T12:06:46.723Z,25.28
2022-09-04T12:09:36.739Z,25.20
2022-09-04T12:12:31.472Z,25.02
2022-09-04T12:15:37.950Z,24.95
2022-09-04T12:18:31.933Z,25.17
2022-09-04T12:21:20.242Z,25.16
2022-09-04T12:24:05.282Z,25.16
2022-09-04T12:26:59.717Z,25.58
2022-09-04T12:29:59.047Z,25.63
2022-09-04T12:33:40.947Z,25.65
2022-09-04T12:36:59.612Z,25.49
2022-09-04T12:39:53.008Z,25.89
2022-09-04T12:42:29.756Z,26.02
2022-09-04T12:45:10.036Z,26.10
2022-09-04T12:47:54.400Z,26.57
2022-09-04T12:50:34.405Z,26.50
2022-09-04T12:53:19.262Z,26.55
2022-09-04T12:55:52.914Z,26.61
2022-09-04T12:58:33.866Z,26.22
2022-09-04T13:01:21.374Z,26.61
2022-09-04T13:03:59.091Z,26.46
2022-09-04T13:06:38.246Z,26.45
2022-09-04T13:09:19.985Z,26.37
2022-09-04T13:12:07.299Z,26.80
2022-09-04T13:14:54.019Z,26.82
2022-09-04T13:17:29.628Z,26.66
2022-09-04T13:20:12.726Z,26.67
2022-09-04T13:22:55.077Z,26.72
2022-09-04T13:25:46.093Z,26.48
2022-09-04T13:28:29.275Z,26.85
2022-09-04T13:31:10.007Z,26.92
2022-09-04T13:33:51.391Z,26.43
2022-09-04T13:36:30.354Z,26.92
2022-09-04T13:39:36.605Z,27.01
2022-09-04T13:42:22.873Z,27.07
2022-09-04T13:45:07.232Z,27.14
2022-09-04T13:47:49.966Z,27.07
2022-09-04T13:50:25.954Z,26.69
2022-09-04T13:52:59.657Z,26.87
2022-09-04T13:55:31.582Z,26.93
2022-09-04T13:58:10.461Z,27.04
2022-09-04T14:00:45.901Z,26.94
2022-09-04T14:03:32.792Z,26.81
2022-09-04T14:06:02.508Z,26.65
2022-09-04T14:08:31.359Z,27.14
2022-09-04T14:11:26.192Z,26.97
2022-09-04T14:14:20.013Z,27.11
2022-09-04T14:16:49.585Z,26.96
2022-09-04T14:19:32.399Z,26.96
2022-09-04T14:22:24.596Z,26.71
2022-09-04T14:25:06.445Z,26.69
2022-09-04T14:27:47.964Z,26.57
2022-09-04T14:30:18.114Z,26.78
2022-09-04T14:32:58.039Z,26.59
2022-09-04T14:35:36.363Z,26.50
2022-09-04T14:38:24.481Z,26.47
2022-09-04T14:41:03.345Z,26.47
2022-09-04T14:43:45.726Z,26.35
2022-09-04T14:46:22.015Z,26.43
2022-09-04T14:49:01.081Z,26.33
2022-09-04T14:51:36.751Z,26.50
2022-09-04T14:54:06.392Z,26.77
2022-09-04T14:56:41.153Z,26.88
2022-09-04T14:59:17.691Z,26.73
2022-09-04T15:02:06.171Z,26.64
2022-09-04T15:04:42.416Z,26.57
2022-09-04T15:07:31.634Z,26.44
2022-09-04T15:10:17.330Z,26.45
2022-09-04T15:12:54.502Z,26.50
2022-09-04T15:15:31.596Z,26.62
2022-09-04T15:18:10.836Z,26.47
2022-09-04T15:20:48.902Z,26.50
2022-09-04T15:23:25.877Z,26.42
2022-09-04T15:26:02.994Z,26.36
2022-09-04T15:28:39.946Z,26.15
2022-09-04T15:31:16.040Z,26.26
2022-09-04T15:33:47.619Z,26.36
2022-09-04T15:36:20.221Z,26.06
2022-09-04T15:38:55.810Z,26.05
2022-09-04T15:41:37.747Z,26.10
2022-09-04T15:44:18.579Z,26.21
2022-09-04T15:47:20.412Z,26.05
2022-09-04T15:49:52.548Z,25.97
2022-09-04T15:52:31.012Z,25.94
2022-09-04T15:55:12.009Z,26.09
2022-09-04T15:57:52.092Z,26.23
2022-09-04T16:00:24.135Z,26.11
2022-09-04T16:02:59.205Z,26.18
2022-09-04T16:05:36.149Z,26.14
2022-09-04T16:08:20.588Z,26.33
2022-09-04T16:10:58.459Z,26.29
2022-09-04T16:13:40.155Z,26.25
2022-09-04T16:16:19.285Z,26.25
2022-09-04T16:19:04.756Z,26.37
2022-09-04T16:21:42.872Z,26.38
2022-09-04T16:24:16.790Z,26.32
2022-09-04T16:26:54.052Z,26.12
2022-09-04T16:29:32.873Z,26.15
2022-09-04T16:32:01.268Z,26.18
2022-09-04T16:34:34.443Z,26.19
2022-09-04T16:37:10.335Z,26.27
2022-09-04T16:39:49.525Z,26.11
2022-09-04T16:42:25.103Z,26.17
2022-09-04T16:45:00.326Z,26.02
2022-09-04T16:47:36.487Z,25.97
2022-09-04T16:50:17.980Z,26.22
2022-09-04T16:53:12.688Z,26.13
2022-09-04T16:55:48.842Z,26.14
2022-09-04T16:58:34.974Z,26.09
2022-09-04T17:01:14.319Z,25.99
2022-09-04T17:04:13.886Z,25.89
2022-09-04T17:07:00.150Z,25.88
2022-09-04T17:09:34.345Z,25.94
2022-09-04T17:12:18.170Z,25.98
2022-09-04T17:14:53.737Z,25.96
2022-09-04T17:17:31.221Z,25.89
2022-09-04T17:20:11.275Z,25.81
2022-09-04T17:29:01.870Z,25.68
2022-09-04T17:29:15.595Z,25.57
2022-09-04T17:29:24.485Z,25.63
2022-09-04T17:31:45.597Z,25.54
2022-09-04T17:40:31.792Z,25.43
2022-09-04T17:40:40.415Z,25.37
2022-09-04T17:40:49.734Z,25.31
2022-09-04T17:43:22.124Z,25.21
2022-09-04T17:46:06.711Z,25.12
2022-09-04T17:48:42.009Z,25.04
2022-09-04T17:51:17.658Z,24.94
2022-09-04T17:53:52.799Z,24.88
2022-09-04T17:56:25.309Z,24.82
2022-09-04T17:58:59.624Z,24.71
2022-09-04T18:01:33.768Z,24.61
2022-09-04T18:04:22.896Z,24.55
2022-09-04T18:06:56.714Z,24.52
2022-09-04T18:09:33.045Z,24.40
2022-09-04T18:12:11.151Z,24.30
2022-09-04T18:14:53.148Z,24.22
2022-09-04T18:17:47.863Z,24.10
2022-09-04T18:20:29.503Z,24.04
2022-09-04T18:23:30.828Z,23.95
2022-09-04T18:26:04.937Z,23.93
2022-09-04T18:28:47.303Z,23.87
2022-09-04T18:37:07.568Z,23.80
2022-09-04T18:37:20.407Z,23.73
2022-09-04T18:37:44.862Z,23.65
2022-09-04T18:40:14.972Z,23.58
2022-09-04T18:50:21.702Z,23.53
2022-09-04T18:50:24.235Z,23.48
2022-09-04T18:50:49.355Z,23.44
2022-09-04T18:51:44.059Z,23.32
2022-09-04T18:54:23.119Z,23.27
2022-09-04T18:56:55.750Z,23.19
2022-09-04T18:59:28.004Z,23.11
2022-09-04T19:02:04.361Z,22.94
2022-09-04T19:04:40.070Z,22.81
2022-09-04T19:07:12.859Z,22.72
2022-09-04T19:10:08.766Z,22.66
2022-09-04T19:12:48.023Z,22.62
2022-09-04T19:15:36.294Z,22.61
2022-09-04T19:18:13.243Z,22.45
2022-09-04T19:20:47.816Z,22.37
2022-09-04T19:23:25.594Z,22.22
2022-09-04T19:25:57.258Z,22.23
2022-09-04T19:28:30.469Z,22.19
2022-09-04T19:31:03.286Z,22.11
2022-09-04T19:33:40.412Z,22.04
2022-09-04T19:36:12.928Z,21.94
2022-09-04T19:45:05.750Z,21.91
2022-09-04T19:46:09.187Z,21.85
2022-09-04T19:46:15.050Z,21.74
2022-09-04T19:47:30.808Z,21.72
2022-09-04T19:53:19.481Z,21.60
2022-09-04T19:53:31.103Z,21.64
2022-09-04T19:56:08.421Z,21.60
2022-09-04T19:58:44.043Z,21.49
2022-09-04T20:01:16.922Z,21.51
2022-09-04T20:03:49.717Z,21.39
2022-09-04T20:06:30.106Z,21.36
2022-09-04T20:09:04.032Z,21.40
2022-09-04T20:11:36.522Z,21.25
2022-09-04T20:14:20.568Z,21.29
2022-09-04T20:17:08.451Z,21.22
2022-09-04T20:19:42.144Z,21.19
2022-09-04T20:22:25.937Z,21.16
2022-09-04T20:25:02.087Z,21.10
2022-09-04T20:27:36.506Z,21.10
2022-09-04T20:30:12.756Z,21.08
2022-09-04T20:32:55.987Z,21.04
2022-09-04T20:35:33.846Z,21.01
2022-09-04T20:38:12.439Z,20.90
2022-09-04T20:40:43.229Z,20.91
2022-09-04T20:43:26.870Z,20.88
2022-09-04T20:50:34.698Z,20.77
2022-09-04T20:52:50.302Z,20.82
2022-09-04T20:52:53.514Z,20.78
2022-09-04T20:55:30.032Z,20.75
2022-09-04T21:03:07.982Z,20.64
2022-09-04T21:03:08.613Z,20.73
2022-09-04T21:04:09.628Z,20.66
2022-09-04T21:06:44.433Z,20.62
2022-09-04T21:09:30.657Z,20.57
2022-09-04T21:12:13.938Z,20.52
2022-09-04T21:14:46.486Z,20.40
2022-09-04T21:18:06.274Z,20.42
2022-09-04T21:20:59.745Z,20.38
2022-09-04T21:24:03.688Z,20.30
2022-09-04T21:27:11.956Z,20.28
2022-09-04T21:29:59.488Z,20.27
2022-09-04T21:32:49.689Z,20.23
2022-09-04T21:35:22.949Z,20.21
2022-09-04T21:38:02.777Z,20.18
2022-09-04T21:40:52.498Z,20.16
2022-09-04T21:43:38.599Z,20.12
2022-09-04T21:46:54.635Z,20.14
2022-09-04T21:49:41.788Z,20.16
2022-09-04T21:52:32.406Z,20.09
2022-09-04T21:58:14.137Z,20.09
2022-09-04T22:02:32.419Z,20.08
2022-09-04T22:02:40.286Z,20.06
2022-09-04T22:04:19.967Z,19.99
2022-09-04T22:08:24.078Z,19.97
2022-09-04T22:13:30.138Z,19.92
2022-09-04T22:13:48.074Z,19.84
2022-09-04T22:16:18.512Z,19.87
2022-09-04T22:19:31.869Z,19.83
2022-09-04T22:22:11.547Z,19.84
2022-09-04T22:25:08.823Z,19.76
2022-09-04T22:28:15.150Z,19.78
2022-09-04T22:31:09.662Z,19.70
2022-09-04T22:34:15.725Z,19.77
2022-09-04T22:37:18.431Z,19.74
2022-09-04T22:40:00.408Z,19.56
2022-09-04T22:42:52.433Z,19.55
2022-09-04T22:46:02.471Z,19.62
2022-09-04T22:49:12.910Z,19.62
2022-09-04T22:52:09.976Z,19.58
2022-09-04T22:54:58.449Z,19.56
2022-09-04T22:57:44.732Z,19.50
2022-09-04T23:00:16.871Z,19.51
2022-09-04T23:03:10.163Z,19.55
2022-09-04T23:08:21.549Z,19.53
2022-09-04T23:13:59.034Z,19.55
2022-09-04T23:14:02.409Z,19.51
2022-09-04T23:16:03.491Z,19.48
2022-09-04T23:23:05.126Z,19.44
2022-09-04T23:26:34.532Z,19.42
2022-09-04T23:26:46.817Z,19.46
2022-09-04T23:28:28.228Z,19.49
2022-09-04T23:31:19.756Z,19.46
2022-09-04T23:34:21.296Z,19.46
2022-09-04T23:37:19.581Z,19.47
2022-09-04T23:40:10.214Z,19.45
2022-09-04T23:43:14.113Z,19.54
2022-09-04T23:46:01.242Z,19.42
2022-09-04T23:49:06.703Z,19.47
2022-09-04T23:51:45.612Z,19.42
2022-09-04T23:54:53.062Z,19.46
2022-09-04T23:57:29.149Z,19.37
